Time;durP1;ratioP1;P1;durP2;ratioP2;P2;SDS_P1;SDS_P2;PMS_P1;PMS_P2;Temp;Humidity;BMP_temperature;BMP_pressure;BME280_temperature;BME280_humidity;BME280_pressure;Samples;Min_cycle;Max_cycle;Signal;HPM_P1;HPM_P2
2022/04/02 00:01:24;;;;;;;5.32;2.10;;;;;;;;;;4974356;28;20035;-66
2022/04/02 00:03:50;;;;;;;5.05;2.35;;;;;;;;;;4973844;28;20070;-66
2022/04/02 00:06:17;;;;;;;4.30;2.25;;;;;;;;;;4974316;28;20439;-66
2022/04/02 00:08:43;;;;;;;6.22;2.40;;;;;;;;;;4974202;28;20081;-66
2022/04/02 00:11:09;;;;;;;3.17;2.08;;;;;;;;;;4973450;28;20043;-66
2022/04/02 00:13:35;;;;;;;3.58;2.20;;;;;;;;;;4974102;28;20454;-66
2022/04/02 00:16:02;;;;;;;3.85;2.10;;;;;;;;;;4974150;28;20039;-66
2022/04/02 00:18:29;;;;;;;9.98;2.78;;;;;;;;;;4973391;28;20077;-66
2022/04/02 00:20:56;;;;;;;4.22;2.30;;;;;;;;;;4974075;28;20094;-66
2022/04/02 00:23:40;;;;;;;4.47;1.90;;;;;;;;;;4974031;28;20042;-66
2022/04/02 00:26:10;;;;;;;4.15;2.22;;;;;;;;;;4980913;28;20085;-66
2022/04/02 00:28:38;;;;;;;4.82;2.15;;;;;;;;;;4993228;28;20048;-66
2022/04/02 00:31:04;;;;;;;3.53;2.15;;;;;;;;;;4992931;28;20473;-66
2022/04/02 00:33:30;;;;;;;6.20;2.53;;;;;;;;;;4992942;28;20042;-66
2022/04/02 00:35:56;;;;;;;6.75;2.55;;;;;;;;;;4993251;28;20577;-66
2022/04/02 00:38:23;;;;;;;5.15;2.15;;;;;;;;;;4993018;28;20038;-66
2022/04/02 00:40:49;;;;;;;4.13;2.22;;;;;;;;;;4992757;28;20633;-66
2022/04/02 00:43:26;;;;;;;4.80;2.20;;;;;;;;;;4992843;28;20034;-66
2022/04/02 00:45:55;;;;;;;5.93;2.17;;;;;;;;;;4992652;28;20050;-66
2022/04/02 00:48:22;;;;;;;4.53;1.77;;;;;;;;;;4992879;28;20050;-66
2022/04/02 00:50:52;;;;;;;3.55;2.20;;;;;;;;;;4993018;28;20038;-66
2022/04/02 00:53:19;;;;;;;4.53;2.55;;;;;;;;;;4992500;28;20048;-66
2022/04/02 00:55:45;;;;;;;3.67;2.13;;;;;;;;;;4992818;28;20043;-66
2022/04/02 00:58:12;;;;;;;3.70;2.30;;;;;;;;;;4991227;28;20704;-66
2022/04/02 01:00:41;;;;;;;3.10;2.35;;;;;;;;;;4991170;28;20049;-66
2022/04/02 01:03:07;;;;;;;6.35;2.72;;;;;;;;;;4992792;28;20145;-66
2022/04/02 01:05:35;;;;;;;3.78;2.20;;;;;;;;;;4991596;28;20050;-66
2022/04/02 01:08:04;;;;;;;4.00;2.30;;;;;;;;;;4992565;28;20050;-66
2022/04/02 01:10:30;;;;;;;4.72;2.20;;;;;;;;;;4992297;28;20071;-66
2022/04/02 01:12:56;;;;;;;4.93;2.58;;;;;;;;;;5007844;28;20180;-66
2022/04/02 01:15:22;;;;;;;7.28;2.88;;;;;;;;;;4992684;28;20464;-66
2022/04/02 01:17:48;;;;;;;6.13;2.33;;;;;;;;;;4992027;28;20060;-66
2022/04/02 01:20:15;;;;;;;3.88;2.15;;;;;;;;;;4992316;28;20046;-66
2022/04/02 01:22:41;;;;;;;5.32;2.58;;;;;;;;;;4992401;28;20790;-66
2022/04/02 01:25:08;;;;;;;4.25;2.22;;;;;;;;;;4991923;28;20076;-66
2022/04/02 01:27:35;;;;;;;4.57;1.98;;;;;;;;;;4973256;28;20042;-66
2022/04/02 01:30:01;;;;;;;3.90;2.55;;;;;;;;;;4972646;28;20086;-66
2022/04/02 01:32:27;;;;;;;3.20;2.25;;;;;;;;;;4972328;28;20458;-66
2022/04/02 01:34:53;;;;;;;6.88;2.72;;;;;;;;;;4972832;28;20042;-66
2022/04/02 01:37:19;;;;;;;8.32;2.42;;;;;;;;;;4972793;28;20182;-66
2022/04/02 01:39:45;;;;;;;5.05;2.65;;;;;;;;;;4972061;28;20130;-66
2022/04/02 01:42:12;;;;;;;3.90;2.35;;;;;;;;;;4972792;28;20762;-66
2022/04/02 01:44:38;;;;;;;3.50;2.20;;;;;;;;;;4972489;28;20063;-66
2022/04/02 01:47:04;;;;;;;4.20;2.17;;;;;;;;;;4971961;28;20512;-66
2022/04/02 01:49:30;;;;;;;4.38;2.60;;;;;;;;;;4971138;28;20077;-66
2022/04/02 01:51:56;;;;;;;5.07;2.28;;;;;;;;;;4972403;28;20047;-66
2022/04/02 01:54:22;;;;;;;5.60;2.83;;;;;;;;;;4970530;28;20043;-66
2022/04/02 01:56:49;;;;;;;5.32;2.28;;;;;;;;;;4972499;28;20130;-66
2022/04/02 01:59:15;;;;;;;5.22;2.60;;;;;;;;;;4972530;28;20049;-66
2022/04/02 02:01:42;;;;;;;5.00;2.40;;;;;;;;;;4972110;28;20553;-66
2022/04/02 02:04:08;;;;;;;6.28;2.28;;;;;;;;;;4972815;28;20038;-66
2022/04/02 02:06:38;;;;;;;5.53;2.83;;;;;;;;;;4972442;28;20074;-66
2022/04/02 02:09:05;;;;;;;4.70;2.58;;;;;;;;;;4972117;28;20070;-66
2022/04/02 02:11:31;;;;;;;4.45;2.40;;;;;;;;;;4972632;28;20059;-66
2022/04/02 02:13:58;;;;;;;4.57;2.42;;;;;;;;;;4972285;28;20049;-66
2022/04/02 02:16:24;;;;;;;6.22;2.45;;;;;;;;;;4971850;28;20057;-66
2022/04/02 02:18:50;;;;;;;5.00;2.78;;;;;;;;;;4972489;28;20087;-66
2022/04/02 02:21:17;;;;;;;8.20;3.70;;;;;;;;;;4972451;28;20039;-66
2022/04/02 02:23:43;;;;;;;4.57;2.47;;;;;;;;;;4974322;28;20086;-66
2022/04/02 02:26:09;;;;;;;6.88;2.88;;;;;;;;;;4983544;28;20057;-66
2022/04/02 02:28:35;;;;;;;5.00;2.50;;;;;;;;;;4995576;28;20077;-66
2022/04/02 02:31:01;;;;;;;4.65;2.80;;;;;;;;;;4995096;28;20185;-66
2022/04/02 02:36:12;;;;;;;7.38;2.60;;;;;;;;;;4995403;28;20056;-66
2022/04/02 02:38:38;;;;;;;3.33;2.35;;;;;;;;;;4994780;28;20045;-66
2022/04/02 02:41:04;;;;;;;5.32;2.90;;;;;;;;;;4995184;28;20038;-66
2022/04/02 02:43:30;;;;;;;5.10;2.90;;;;;;;;;;4995065;28;20118;-66
2022/04/02 02:45:56;;;;;;;5.50;2.30;;;;;;;;;;4994671;28;20126;-66
2022/04/02 02:48:22;;;;;;;4.10;2.28;;;;;;;;;;4993897;28;20054;-66
2022/04/02 02:50:48;;;;;;;5.40;1.95;;;;;;;;;;4994778;28;20042;-66
2022/04/02 02:53:14;;;;;;;9.32;2.60;;;;;;;;;;4994664;28;20046;-66
2022/04/02 02:55:40;;;;;;;6.75;2.83;;;;;;;;;;4993805;28;20129;-66
2022/04/02 02:58:07;;;;;;;5.82;2.83;;;;;;;;;;4995065;28;20132;-66
2022/04/02 03:00:34;;;;;;;4.40;2.88;;;;;;;;;;4994180;28;20042;-66
2022/04/02 03:03:00;;;;;;;4.35;2.42;;;;;;;;;;4995172;28;20111;-66
2022/04/02 03:05:26;;;;;;;4.80;2.80;;;;;;;;;;4995122;28;20045;-66
2022/04/02 03:07:52;;;;;;;5.10;2.80;;;;;;;;;;4994272;28;20038;-66
2022/04/02 03:10:19;;;;;;;5.82;2.80;;;;;;;;;;4994966;28;20039;-66
2022/04/02 03:12:50;;;;;;;4.55;2.60;;;;;;;;;;4993308;28;20042;-66
2022/04/02 03:15:16;;;;;;;5.97;2.75;;;;;;;;;;4994275;28;20134;-66
2022/04/02 03:17:43;;;;;;;7.07;3.05;;;;;;;;;;4994515;28;20534;-66
2022/04/02 03:20:11;;;;;;;4.53;2.40;;;;;;;;;;4994597;28;20042;-66
2022/04/02 03:22:41;;;;;;;5.22;2.38;;;;;;;;;;4992747;28;20543;-66
2022/04/02 03:25:11;;;;;;;4.40;2.78;;;;;;;;;;4994658;28;20078;-66
2022/04/02 03:27:38;;;;;;;6.80;2.80;;;;;;;;;;4974756;28;20050;-66
2022/04/02 03:30:05;;;;;;;7.70;3.40;;;;;;;;;;4974348;28;20046;-66
2022/04/02 03:32:32;;;;;;;4.93;3.25;;;;;;;;;;4974884;28;20092;-66
2022/04/02 03:34:58;;;;;;;6.20;2.92;;;;;;;;;;4974239;28;20053;-66
2022/04/02 03:37:24;;;;;;;5.47;2.78;;;;;;;;;;4973972;28;20070;-66
2022/04/02 03:39:51;;;;;;;5.57;2.50;;;;;;;;;;4974881;28;20078;-66
2022/04/02 03:42:17;;;;;;;6.03;3.00;;;;;;;;;;4974853;28;20063;-66
2022/04/02 03:44:43;;;;;;;5.25;2.60;;;;;;;;;;4973799;28;20129;-66
2022/04/02 03:47:09;;;;;;;6.10;2.92;;;;;;;;;;4974597;28;20538;-66
2022/04/02 03:49:36;;;;;;;6.03;2.50;;;;;;;;;;4974548;28;20043;-66
2022/04/02 03:52:03;;;;;;;6.30;3.00;;;;;;;;;;4974051;28;20046;-66
2022/04/02 03:54:29;;;;;;;4.28;2.80;;;;;;;;;;4974707;28;20724;-66
2022/04/02 03:56:55;;;;;;;5.88;2.88;;;;;;;;;;4974194;28;20049;-66
2022/04/02 03:59:21;;;;;;;4.68;2.90;;;;;;;;;;4973877;28;20086;-66
2022/04/02 04:01:47;;;;;;;5.13;2.47;;;;;;;;;;4974541;28;20481;-66
2022/04/02 04:04:13;;;;;;;4.93;2.42;;;;;;;;;;4974151;28;20043;-66
2022/04/02 04:06:39;;;;;;;4.38;2.72;;;;;;;;;;4973684;28;20509;-66
2022/04/02 04:09:05;;;;;;;9.13;2.80;;;;;;;;;;4974371;28;20069;-66
2022/04/02 04:11:32;;;;;;;7.78;2.75;;;;;;;;;;4974180;28;20057;-66
2022/04/02 04:13:58;;;;;;;5.20;2.70;;;;;;;;;;4973613;28;20039;-66
2022/04/02 04:16:24;;;;;;;3.22;2.42;;;;;;;;;;4974210;28;20042;-66
2022/04/02 04:18:50;;;;;;;8.50;3.17;;;;;;;;;;4973854;28;21039;-66
2022/04/02 04:21:17;;;;;;;4.85;2.38;;;;;;;;;;4973582;28;20039;-66
2022/04/02 04:23:43;;;;;;;6.82;2.83;;;;;;;;;;4972531;28;20134;-66
2022/04/02 04:26:09;;;;;;;5.03;2.72;;;;;;;;;;4973968;28;20042;-66
2022/04/02 04:28:39;;;;;;;6.13;2.42;;;;;;;;;;4973296;28;20038;-66
2022/04/02 04:31:05;;;;;;;6.03;3.03;;;;;;;;;;4973858;28;20038;-66
2022/04/02 04:33:31;;;;;;;5.63;2.95;;;;;;;;;;4973704;28;20173;-66
2022/04/02 04:35:57;;;;;;;6.80;2.58;;;;;;;;;;4971983;28;20567;-66
2022/04/02 04:38:24;;;;;;;7.13;2.90;;;;;;;;;;4973569;28;20042;-66
2022/04/02 04:40:50;;;;;;;6.63;2.60;;;;;;;;;;4973941;28;20082;-66
2022/04/02 04:43:16;;;;;;;5.60;2.88;;;;;;;;;;4972866;28;20425;-66
2022/04/02 04:45:42;;;;;;;7.28;2.55;;;;;;;;;;4973052;28;20047;-66
2022/04/02 04:48:08;;;;;;;3.90;2.60;;;;;;;;;;4973487;28;20495;-66
2022/04/02 04:50:37;;;;;;;5.45;2.47;;;;;;;;;;4972869;28;20079;-66
2022/04/02 04:53:03;;;;;;;5.00;2.60;;;;;;;;;;4973610;28;20049;-66
2022/04/02 04:55:29;;;;;;;6.63;2.72;;;;;;;;;;4973397;28;20046;-66
2022/04/02 04:57:55;;;;;;;4.95;2.30;;;;;;;;;;4972533;28;20110;-66
2022/04/02 05:00:22;;;;;;;4.00;2.30;;;;;;;;;;4973610;28;20465;-66
2022/04/02 05:02:48;;;;;;;3.92;2.63;;;;;;;;;;4973497;28;20450;-66
2022/04/02 05:05:14;;;;;;;6.68;2.50;;;;;;;;;;4972407;28;20039;-66
2022/04/02 05:07:41;;;;;;;5.47;2.63;;;;;;;;;;4973234;28;20101;-66
2022/04/02 05:10:07;;;;;;;4.40;2.70;;;;;;;;;;4973248;28;20094;-66
2022/04/02 05:12:33;;;;;;;5.30;2.17;;;;;;;;;;4972675;28;20086;-66
2022/04/02 05:14:59;;;;;;;7.55;2.55;;;;;;;;;;4973320;28;20047;-66
2022/04/02 05:17:26;;;;;;;10.63;3.10;;;;;;;;;;4973116;28;20560;-66
2022/04/02 05:19:52;;;;;;;5.72;2.40;;;;;;;;;;4972415;28;20057;-66
2022/04/02 05:22:18;;;;;;;5.43;2.58;;;;;;;;;;4971665;28;20386;-66
2022/04/02 05:24:44;;;;;;;8.30;2.30;;;;;;;;;;4971524;28;20114;-66
2022/04/02 05:27:11;;;;;;;7.38;2.40;;;;;;;;;;4971919;28;20053;-66
2022/04/02 05:29:37;;;;;;;7.63;2.78;;;;;;;;;;4972709;28;20109;-66
2022/04/02 05:32:03;;;;;;;6.35;2.78;;;;;;;;;;4972727;28;20138;-66
2022/04/02 05:34:30;;;;;;;3.78;2.50;;;;;;;;;;4972333;28;20047;-66
2022/04/02 05:36:56;;;;;;;6.80;2.53;;;;;;;;;;4972822;28;20100;-66
2022/04/02 05:39:23;;;;;;;5.20;2.58;;;;;;;;;;4972862;28;20130;-66
2022/04/02 05:41:49;;;;;;;8.38;2.65;;;;;;;;;;4972945;28;20039;-66
2022/04/02 05:44:15;;;;;;;6.88;2.47;;;;;;;;;;4972057;28;20498;-66
2022/04/02 05:46:41;;;;;;;4.43;2.50;;;;;;;;;;4972786;28;20054;-66
2022/04/02 05:49:07;;;;;;;4.18;2.17;;;;;;;;;;4972553;28;20486;-66
2022/04/02 05:51:33;;;;;;;5.90;2.42;;;;;;;;;;4972246;28;20082;-66
2022/04/02 05:54:00;;;;;;;7.30;2.63;;;;;;;;;;4972885;28;20038;-66
2022/04/02 05:56:26;;;;;;;5.13;2.55;;;;;;;;;;4973162;28;20506;-66
2022/04/02 05:58:53;;;;;;;5.68;2.95;;;;;;;;;;4976013;28;20039;-66
2022/04/02 06:01:19;;;;;;;9.88;2.80;;;;;;;;;;4976670;28;20589;-66
2022/04/02 06:03:47;;;;;;;5.70;2.50;;;;;;;;;;4976753;28;20042;-66
2022/04/02 06:06:13;;;;;;;6.28;2.42;;;;;;;;;;4975875;28;20046;-66
2022/04/02 06:08:39;;;;;;;6.55;2.85;;;;;;;;;;4976577;28;20050;-66
2022/04/02 06:11:06;;;;;;;8.73;2.35;;;;;;;;;;4976183;28;20484;-66
2022/04/02 06:13:32;;;;;;;7.80;3.17;;;;;;;;;;4975778;28;20485;-66
2022/04/02 06:15:58;;;;;;;6.82;2.67;;;;;;;;;;4976431;28;20043;-66
2022/04/02 06:18:24;;;;;;;5.82;2.60;;;;;;;;;;4975809;28;20050;-66
2022/04/02 06:20:50;;;;;;;7.28;2.95;;;;;;;;;;4974477;28;20049;-66
2022/04/02 06:23:17;;;;;;;6.10;2.63;;;;;;;;;;4976146;28;20038;-66
2022/04/02 06:25:44;;;;;;;4.70;2.95;;;;;;;;;;4980518;28;20034;-66
2022/04/02 06:28:10;;;;;;;8.43;2.63;;;;;;;;;;4995171;28;20042;-66
2022/04/02 06:30:36;;;;;;;4.15;2.67;;;;;;;;;;4995629;28;20047;-66
2022/04/02 06:33:04;;;;;;;6.78;2.70;;;;;;;;;;4995632;28;20048;-66
2022/04/02 06:35:30;;;;;;;6.07;2.60;;;;;;;;;;4994693;28;20046;-66
2022/04/02 06:37:57;;;;;;;6.88;2.92;;;;;;;;;;4995369;28;20121;-66
2022/04/02 06:40:23;;;;;;;9.02;3.45;;;;;;;;;;4995214;28;20042;-66
2022/04/02 06:42:50;;;;;;;5.97;2.53;;;;;;;;;;4994805;28;20121;-66
2022/04/02 06:45:16;;;;;;;5.90;2.72;;;;;;;;;;4995067;28;20058;-66
2022/04/02 06:47:43;;;;;;;8.85;2.90;;;;;;;;;;4995099;28;20086;-66
2022/04/02 06:50:10;;;;;;;10.68;3.42;;;;;;;;;;4994696;28;20049;-66
2022/04/02 06:52:36;;;;;;;5.32;2.72;;;;;;;;;;4993808;28;20073;-66
2022/04/02 06:55:03;;;;;;;5.90;3.10;;;;;;;;;;4995237;28;20483;-66
2022/04/02 06:57:29;;;;;;;6.05;2.58;;;;;;;;;;4994442;28;20042;-66
2022/04/02 06:59:56;;;;;;;8.52;2.95;;;;;;;;;;4994771;28;20049;-66
2022/04/02 07:02:22;;;;;;;11.55;2.70;;;;;;;;;;4994838;28;20053;-66
2022/04/02 07:04:48;;;;;;;6.82;2.97;;;;;;;;;;4994405;28;20249;-66
2022/04/02 07:07:14;;;;;;;5.43;2.63;;;;;;;;;;4994994;28;20391;-66
2022/04/02 07:09:41;;;;;;;10.30;3.00;;;;;;;;;;4993968;28;20125;-66
2022/04/02 07:12:07;;;;;;;7.65;3.10;;;;;;;;;;4994242;28;20042;-66
2022/04/02 07:14:33;;;;;;;7.15;3.30;;;;;;;;;;4994929;28;20046;-66
2022/04/02 07:16:59;;;;;;;14.40;3.08;;;;;;;;;;4994376;28;20049;-66
2022/04/02 07:19:26;;;;;;;7.25;2.90;;;;;;;;;;4993979;28;20034;-66
2022/04/02 07:21:53;;;;;;;6.10;3.20;;;;;;;;;;4994787;28;20038;-66
2022/04/02 07:24:19;;;;;;;4.70;2.80;;;;;;;;;;4994747;28;20678;-66
2022/04/02 07:26:45;;;;;;;5.53;2.95;;;;;;;;;;4980899;28;20039;-66
2022/04/02 07:29:12;;;;;;;6.70;3.10;;;;;;;;;;4974952;28;20069;-66
2022/04/02 07:31:38;;;;;;;7.38;2.75;;;;;;;;;;4974975;28;20460;-66
2022/04/02 07:34:04;;;;;;;6.10;2.65;;;;;;;;;;4974321;28;20607;-66
2022/04/02 07:36:46;;;;;;;5.65;3.13;;;;;;;;;;4974848;28;20053;-66
2022/04/02 07:39:22;;;;;;;6.67;2.37;;;;;;;;;;4974773;28;20047;-66
2022/04/02 07:41:51;;;;;;;6.97;2.63;;;;;;;;;;4974252;28;20101;-66
2022/04/02 07:44:21;;;;;;;6.50;2.70;;;;;;;;;;4974454;28;20117;-66
2022/04/02 07:46:48;;;;;;;7.18;2.60;;;;;;;;;;4974297;28;20126;-66
2022/04/02 07:49:18;;;;;;;5.85;2.45;;;;;;;;;;4974020;28;20046;-66
2022/04/02 07:51:48;;;;;;;9.68;2.97;;;;;;;;;;4974676;28;20449;-66
2022/04/02 07:54:15;;;;;;;8.32;2.72;;;;;;;;;;4974574;28;20050;-66
2022/04/02 07:56:43;;;;;;;6.93;2.60;;;;;;;;;;4973944;28;20078;-66
2022/04/02 07:59:15;;;;;;;3.97;2.40;;;;;;;;;;4974265;28;20051;-66
2022/04/02 08:01:44;;;;;;;6.07;2.47;;;;;;;;;;4974498;28;20051;-66
2022/04/02 08:04:12;;;;;;;9.05;2.50;;;;;;;;;;4972434;28;20042;-66
2022/04/02 08:06:39;;;;;;;7.35;2.75;;;;;;;;;;4974357;28;20554;-66
2022/04/02 08:09:06;;;;;;;7.88;2.42;;;;;;;;;;4974406;28;20126;-66
2022/04/02 08:11:33;;;;;;;4.72;2.55;;;;;;;;;;4973593;28;20442;-66
2022/04/02 08:14:00;;;;;;;4.25;2.22;;;;;;;;;;4974483;28;20090;-66
2022/04/02 08:16:27;;;;;;;3.78;2.53;;;;;;;;;;4974211;28;20426;-66
2022/04/02 08:18:54;;;;;;;6.00;2.25;;;;;;;;;;4973350;28;20125;-66
2022/04/02 08:21:20;;;;;;;4.00;2.10;;;;;;;;;;4973133;28;20077;-66
2022/04/02 08:23:46;;;;;;;6.82;2.45;;;;;;;;;;4974197;28;20039;-66
2022/04/02 08:26:25;;;;;;;4.72;2.20;;;;;;;;;;4981549;28;20069;-66
2022/04/02 08:29:09;;;;;;;5.63;2.78;;;;;;;;;;4993373;28;20069;-66
2022/04/02 08:31:40;;;;;;;3.97;2.50;;;;;;;;;;4993608;28;20381;-66
2022/04/02 08:34:12;;;;;;;4.18;1.73;;;;;;;;;;4992913;28;20068;-66
2022/04/02 08:37:17;;;;;;;4.18;2.13;;;;;;;;;;4993332;28;20042;-66
2022/04/02 08:39:49;;;;;;;6.53;2.30;;;;;;;;;;4989538;28;20042;-66
2022/04/02 08:42:35;;;;;;;5.05;2.40;;;;;;;;;;4990299;28;20046;-66
2022/04/02 08:45:01;;;;;;;4.93;2.00;;;;;;;;;;4992052;28;20089;-66
2022/04/02 08:47:46;;;;;;;6.97;2.53;;;;;;;;;;4992183;28;20046;-66
2022/04/02 08:50:14;;;;;;;5.63;2.17;;;;;;;;;;4992712;28;20480;-66
2022/04/02 08:52:49;;;;;;;6.43;2.03;;;;;;;;;;4993226;28;20042;-66
2022/04/02 08:55:16;;;;;;;4.30;1.92;;;;;;;;;;4991169;28;20050;-66
2022/04/02 08:57:42;;;;;;;7.07;2.10;;;;;;;;;;4992523;28;20045;-66
2022/04/02 09:00:10;;;;;;;6.95;2.25;;;;;;;;;;4992939;28;20039;-66
2022/04/02 09:02:54;;;;;;;6.60;2.22;;;;;;;;;;4992361;28;20038;-66
2022/04/02 09:05:39;;;;;;;8.48;2.72;;;;;;;;;;4992815;28;20042;-66
2022/04/02 09:08:05;;;;;;;5.15;1.98;;;;;;;;;;4992483;28;20046;-66
2022/04/02 09:10:50;;;;;;;4.72;2.10;;;;;;;;;;4991927;28;20053;-66
2022/04/02 09:13:16;;;;;;;4.80;1.85;;;;;;;;;;4992814;28;20117;-66
2022/04/02 09:15:50;;;;;;;4.95;2.20;;;;;;;;;;4992474;28;20053;-66
2022/04/02 09:18:16;;;;;;;3.35;2.20;;;;;;;;;;4990490;28;20062;-66
2022/04/02 09:21:01;;;;;;;8.98;2.03;;;;;;;;;;4992132;28;20046;-66
2022/04/02 09:23:27;;;;;;;5.50;1.80;;;;;;;;;;4992305;28;20042;-66
2022/04/02 09:26:11;;;;;;;5.53;2.03;;;;;;;;;;4986262;28;20041;-66
2022/04/02 09:28:44;;;;;;;3.47;1.98;;;;;;;;;;4972854;28;20043;-66
2022/04/02 09:31:27;;;;;;;5.78;2.17;;;;;;;;;;4972356;28;20058;-66
2022/04/02 09:34:12;;;;;;;6.90;2.17;;;;;;;;;;4971824;28;20035;-66
2022/04/02 09:36:59;;;;;;;5.10;2.00;;;;;;;;;;4972631;28;20042;-66
2022/04/02 09:39:25;;;;;;;7.25;2.10;;;;;;;;;;4971985;28;20051;-66
2022/04/02 09:42:00;;;;;;;4.32;1.67;;;;;;;;;;4972823;28;20043;-66
2022/04/02 09:44:44;;;;;;;5.00;1.80;;;;;;;;;;4972459;28;20464;-66
2022/04/02 09:47:16;;;;;;;3.75;1.42;;;;;;;;;;4971888;28;20047;-66
2022/04/02 09:49:42;;;;;;;4.82;1.55;;;;;;;;;;4972713;28;20482;-66
2022/04/02 09:52:09;;;;;;;4.07;1.35;;;;;;;;;;4971535;28;20389;-66
2022/04/02 09:54:41;;;;;;;2.75;1.23;;;;;;;;;;4972120;28;20490;-66
2022/04/02 09:57:19;;;;;;;5.45;1.73;;;;;;;;;;4972392;28;20049;-66
2022/04/02 10:00:03;;;;;;;5.18;1.50;;;;;;;;;;4972590;28;20047;-66
2022/04/02 10:02:29;;;;;;;3.03;1.58;;;;;;;;;;4972051;28;20039;-66
2022/04/02 10:04:56;;;;;;;7.03;1.38;;;;;;;;;;4972388;28;20481;-66
2022/04/02 10:07:27;;;;;;;4.55;1.40;;;;;;;;;;4971045;28;20054;-66
2022/04/02 10:09:55;;;;;;;3.20;1.20;;;;;;;;;;4971855;28;20042;-66
2022/04/02 10:12:23;;;;;;;2.88;1.48;;;;;;;;;;4972544;28;20601;-66
2022/04/02 10:14:56;;;;;;;3.15;1.38;;;;;;;;;;4972569;28;20493;-67
2022/04/02 10:17:28;;;;;;;3.83;1.33;;;;;;;;;;4971658;28;20054;-66
2022/04/02 10:19:54;;;;;;;;;;;;;;;;;;4972669;28;20181;-66
2022/04/02 10:22:26;;;;;;;7.10;1.58;;;;;;;;;;4972644;28;20008;-66
2022/04/02 10:24:55;;;;;;;4.38;1.55;;;;;;;;;;4971891;28;20373;-66
2022/04/02 10:27:30;;;;;;;5.30;1.55;;;;;;;;;;4989607;28;20039;-66
2022/04/02 10:29:56;;;;;;;4.13;1.30;;;;;;;;;;4991884;28;20507;-66
2022/04/02 10:32:45;;;;;;;3.72;1.55;;;;;;;;;;4989676;28;20525;-66
2022/04/02 10:35:13;;;;;;;2.58;1.50;;;;;;;;;;4990936;28;20144;-66
2022/04/02 10:37:42;;;;;;;6.47;1.50;;;;;;;;;;4991693;28;20043;-66
2022/04/02 10:40:09;;;;;;;2.17;1.20;;;;;;;;;;4991184;28;20045;-66
2022/04/02 10:42:38;;;;;;;2.85;1.33;;;;;;;;;;4991443;28;20050;-66
2022/04/02 10:45:10;;;;;;;2.25;1.20;;;;;;;;;;4994273;28;20138;-67
2022/04/02 10:47:43;;;;;;;2.90;1.70;;;;;;;;;;4994739;28;20699;-67
2022/04/02 10:50:09;;;;;;;4.25;1.25;;;;;;;;;;4995348;28;20659;-66
2022/04/02 10:52:36;;;;;;;3.95;1.38;;;;;;;;;;4995325;28;20576;-66
2022/04/02 10:55:02;;;;;;;3.83;1.35;;;;;;;;;;4994618;28;20572;-66
2022/04/02 10:57:29;;;;;;;1.92;1.30;;;;;;;;;;4994841;28;20077;-66
2022/04/02 11:00:00;;;;;;;4.07;1.42;;;;;;;;;;4993632;28;20532;-66
2022/04/02 11:02:31;;;;;;;1.60;1.40;;;;;;;;;;4994506;28;20038;-66
2022/04/02 11:04:58;;;;;;;4.88;1.48;;;;;;;;;;4995103;28;20045;-66
2022/04/02 11:07:27;;;;;;;3.33;1.30;;;;;;;;;;4994652;28;20078;-66
2022/04/02 11:09:53;;;;;;;1.98;1.25;;;;;;;;;;4994553;28;20085;-66
2022/04/02 11:12:26;;;;;;;2.28;1.50;;;;;;;;;;4994959;28;20687;-67
2022/04/02 11:14:54;;;;;;;1.52;1.40;;;;;;;;;;4994769;28;20496;-67
2022/04/02 11:17:33;;;;;;;2.42;0.95;;;;;;;;;;4994613;28;20038;-67
2022/04/02 11:20:05;;;;;;;4.00;1.60;;;;;;;;;;4994757;28;20062;-67
2022/04/02 11:22:51;;;;;;;2.58;1.50;;;;;;;;;;4993875;28;20053;-67
2022/04/02 11:25:32;;;;;;;5.13;1.30;;;;;;;;;;4993060;28;20121;-67
2022/04/02 11:28:15;;;;;;;3.42;1.40;;;;;;;;;;4974861;28;20046;-67
2022/04/02 11:30:41;;;;;;;;;;;;;;;;;;4974662;28;20038;-67
2022/04/02 11:33:08;;;;;;;3.00;1.75;;;;;;;;;;4975310;28;19925;-66
2022/04/02 11:35:44;;;;;;;3.85;1.30;;;;;;;;;;4975204;28;20039;-67
2022/04/02 11:38:14;;;;;;;3.72;1.48;;;;;;;;;;4974093;28;20038;-67
2022/04/02 11:40:48;;;;;;;3.22;1.52;;;;;;;;;;4975096;28;20050;-67
2022/04/02 11:43:14;;;;;;;3.70;1.67;;;;;;;;;;4974194;28;20528;-67
2022/04/02 11:45:40;;;;;;;2.97;1.58;;;;;;;;;;4974370;28;20493;-67
2022/04/02 11:48:14;;;;;;;6.80;1.83;;;;;;;;;;4973539;28;20034;-67
2022/04/02 11:50:44;;;;;;;2.80;1.50;;;;;;;;;;4974875;28;20125;-66
2022/04/02 11:53:11;;;;;;;3.75;1.63;;;;;;;;;;4974273;28;20070;-66
2022/04/02 11:55:37;;;;;;;3.35;1.50;;;;;;;;;;4974356;28;20042;-66
2022/04/02 11:58:05;;;;;;;4.10;1.55;;;;;;;;;;4973199;28;20046;-66
2022/04/02 12:00:32;;;;;;;3.65;1.65;;;;;;;;;;4973923;28;20050;-66
2022/04/02 12:03:02;;;;;;;8.60;1.73;;;;;;;;;;4974320;28;20046;-66
2022/04/02 12:05:34;;;;;;;5.70;1.70;;;;;;;;;;4974613;28;20047;-66
2022/04/02 12:08:02;;;;;;;3.60;1.70;;;;;;;;;;4973714;28;20078;-66
2022/04/02 12:10:28;;;;;;;4.50;1.65;;;;;;;;;;4972910;28;20499;-66
2022/04/02 12:12:56;;;;;;;5.38;1.27;;;;;;;;;;4973993;28;20042;-66
2022/04/02 12:15:22;;;;;;;4.22;1.33;;;;;;;;;;4973799;28;20046;-66
2022/04/02 12:17:51;;;;;;;4.07;1.40;;;;;;;;;;4974281;28;20035;-66
2022/04/02 12:20:36;;;;;;;2.35;1.05;;;;;;;;;;4974250;28;20493;-66
2022/04/02 12:23:09;;;;;;;3.33;1.27;;;;;;;;;;4973567;28;20046;-66
2022/04/02 12:25:36;;;;;;;1.42;1.20;;;;;;;;;;4977186;28;20056;-66
2022/04/02 12:28:10;;;;;;;4.60;1.17;;;;;;;;;;5008514;28;20393;-66
2022/04/02 12:30:37;;;;;;;1.40;1.20;;;;;;;;;;4991347;28;20046;-66
2022/04/02 12:33:07;;;;;;;1.88;1.20;;;;;;;;;;4993447;28;20484;-66
2022/04/02 12:35:34;;;;;;;3.28;1.60;;;;;;;;;;4993530;28;20038;-66
2022/04/02 12:38:05;;;;;;;3.53;1.20;;;;;;;;;;4992709;28;20038;-66
2022/04/02 12:40:39;;;;;;;2.47;1.00;;;;;;;;;;4993323;28;20551;-66
2022/04/02 12:43:06;;;;;;;1.52;1.00;;;;;;;;;;4993215;28;20034;-66
2022/04/02 12:45:34;;;;;;;2.58;1.20;;;;;;;;;;4992140;28;20077;-66
2022/04/02 12:48:02;;;;;;;3.15;1.40;;;;;;;;;;4993268;28;20038;-67
2022/04/02 12:50:29;;;;;;;3.47;1.20;;;;;;;;;;4993171;28;20043;-67
2022/04/02 12:52:56;;;;;;;2.97;1.13;;;;;;;;;;4992221;28;20053;-67
2022/04/02 12:55:23;;;;;;;2.38;1.13;;;;;;;;;;4993160;28;20046;-67
2022/04/02 12:58:07;;;;;;;3.83;1.23;;;;;;;;;;4992986;28;20370;-67
2022/04/02 13:00:38;;;;;;;3.83;1.05;;;;;;;;;;4992261;28;20042;-67
2022/04/02 13:03:05;;;;;;;2.05;1.00;;;;;;;;;;4992846;28;20073;-67
2022/04/02 13:05:44;;;;;;;4.78;1.10;;;;;;;;;;4992908;28;20046;-67
2022/04/02 13:08:27;;;;;;;4.47;1.20;;;;;;;;;;4991453;28;20042;-67
2022/04/02 13:10:54;;;;;;;2.53;1.10;;;;;;;;;;4992557;28;20042;-67
2022/04/02 13:13:35;;;;;;;2.13;1.05;;;;;;;;;;4992445;28;20049;-67
2022/04/02 13:16:02;;;;;;;2.88;0.95;;;;;;;;;;4992579;28;20039;-67
2022/04/02 13:21:17;;;;;;;2.60;1.00;;;;;;;;;;4991929;28;20069;-67
2022/04/02 13:23:54;;;;;;;2.08;1.30;;;;;;;;;;4992800;28;20046;-67
2022/04/02 13:26:25;;;;;;;1.30;1.00;;;;;;;;;;4983484;28;20034;-67
2022/04/02 13:29:02;;;;;;;4.53;1.10;;;;;;;;;;4972527;28;20042;-67
2022/04/02 13:31:30;;;;;;;4.43;1.10;;;;;;;;;;4973134;28;20042;-67
2022/04/02 13:34:16;;;;;;;3.38;1.30;;;;;;;;;;4973100;28;20043;-67
2022/04/02 13:36:55;;;;;;;4.82;1.50;;;;;;;;;;4971022;28;20504;-67
2022/04/02 13:39:25;;;;;;;2.85;1.05;;;;;;;;;;4972757;28;20192;-67
2022/04/02 13:41:52;;;;;;;2.58;1.33;;;;;;;;;;4971369;28;20243;-68
2022/04/02 13:44:19;;;;;;;2.20;1.10;;;;;;;;;;4971875;28;20050;-67
2022/04/02 13:46:49;;;;;;;4.25;0.90;;;;;;;;;;4972635;28;20043;-67
2022/04/02 13:49:24;;;;;;;3.08;1.10;;;;;;;;;;4972718;28;20043;-67
2022/04/02 13:51:59;;;;;;;2.80;1.00;;;;;;;;;;4972106;28;20046;-67
2022/04/02 13:54:29;;;;;;;1.92;1.35;;;;;;;;;;4972609;28;20051;-67
2022/04/02 13:57:00;;;;;;;4.53;1.45;;;;;;;;;;4972729;28;20038;-67
2022/04/02 13:59:30;;;;;;;3.13;1.27;;;;;;;;;;4972129;28;20080;-67
2022/04/02 14:01:57;;;;;;;2.17;1.20;;;;;;;;;;4971471;28;20114;-67
2022/04/02 14:04:37;;;;;;;3.30;1.10;;;;;;;;;;4972473;28;20143;-67
2022/04/02 14:07:07;;;;;;;1.58;1.20;;;;;;;;;;4972005;28;20078;-67
2022/04/02 14:09:34;;;;;;;1.52;0.80;;;;;;;;;;4972599;28;20051;-67
2022/04/02 14:12:01;;;;;;;3.88;1.25;;;;;;;;;;4972653;28;20490;-67
2022/04/02 14:14:31;;;;;;;2.72;1.20;;;;;;;;;;4971933;28;20039;-67
2022/04/02 14:17:05;;;;;;;1.48;1.30;;;;;;;;;;4972565;28;20065;-67
2022/04/02 14:19:52;;;;;;;2.50;1.33;;;;;;;;;;4976340;28;20039;-67
2022/04/02 14:22:22;;;;;;;5.47;1.38;;;;;;;;;;4975598;28;20039;-67
2022/04/02 14:25:14;;;;;;;2.63;1.20;;;;;;;;;;4975200;28;20035;-67
2022/04/02 14:27:49;;;;;;;1.08;1.02;;;;;;;;;;4973985;28;20055;-67
2022/04/02 14:30:30;;;;;;;2.00;1.25;;;;;;;;;;4976177;28;20070;-67
2022/04/02 14:32:59;;;;;;;2.38;1.02;;;;;;;;;;4976007;28;20039;-65
2022/04/02 14:35:54;;;;;;;2.33;0.95;;;;;;;;;;4975556;28;20039;-65
2022/04/02 14:38:20;;;;;;;2.92;1.15;;;;;;;;;;4975922;28;20049;-65
2022/04/02 14:41:05;;;;;;;2.65;1.10;;;;;;;;;;4976026;28;20031;-65
2022/04/02 14:43:34;;;;;;;1.90;1.02;;;;;;;;;;4975198;28;20798;-67
2022/04/02 14:46:03;;;;;;;2.92;1.30;;;;;;;;;;4975792;28;20070;-67
2022/04/02 14:48:39;;;;;;;3.08;1.10;;;;;;;;;;4975867;28;20121;-67
2022/04/02 14:51:17;;;;;;;4.88;1.30;;;;;;;;;;4975219;28;20121;-67
2022/04/02 14:53:49;;;;;;;2.45;0.93;;;;;;;;;;4974334;28;20126;-67
2022/04/02 14:56:21;;;;;;;2.38;1.20;;;;;;;;;;4974317;28;20046;-67
2022/04/02 14:59:06;;;;;;;2.90;0.88;;;;;;;;;;4975127;28;20047;-67
2022/04/02 15:01:42;;;;;;;2.65;1.23;;;;;;;;;;4975522;28;20054;-67